sensor_id;sensor_type;location;lat;lon;timestamp;temperature;humidity
73780;SHT30;62093;37.614;15.072;2024-02-04T00:02:03;14.89;57.15
73780;SHT30;62093;37.614;15.072;2024-02-04T00:04:29;14.89;57.14
73780;SHT30;62093;37.614;15.072;2024-02-04T00:06:58;14.89;56.78
73780;SHT30;62093;37.614;15.072;2024-02-04T00:09:24;14.89;57.70
73780;SHT30;62093;37.614;15.072;2024-02-04T00:11:51;14.88;57.08
73780;SHT30;62093;37.614;15.072;2024-02-04T00:14:17;14.88;57.19
73780;SHT30;62093;37.614;15.072;2024-02-04T00:16:43;14.88;57.39
73780;SHT30;62093;37.614;15.072;2024-02-04T00:19:09;14.92;57.43
73780;SHT30;62093;37.614;15.072;2024-02-04T00:21:34;14.86;57.35
73780;SHT30;62093;37.614;15.072;2024-02-04T00:24:00;14.88;57.47
73780;SHT30;62093;37.614;15.072;2024-02-04T00:26:26;14.86;57.04
73780;SHT30;62093;37.614;15.072;2024-02-04T00:28:52;14.92;57.37
73780;SHT30;62093;37.614;15.072;2024-02-04T00:31:19;14.88;57.22
73780;SHT30;62093;37.614;15.072;2024-02-04T00:33:45;14.83;57.21
73780;SHT30;62093;37.614;15.072;2024-02-04T00:36:11;14.83;57.28
73780;SHT30;62093;37.614;15.072;2024-02-04T00:38:37;14.86;57.35
73780;SHT30;62093;37.614;15.072;2024-02-04T00:41:03;14.86;57.41
73780;SHT30;62093;37.614;15.072;2024-02-04T00:43:29;14.89;57.69
73780;SHT30;62093;37.614;15.072;2024-02-04T00:45:55;14.83;57.16
73780;SHT30;62093;37.614;15.072;2024-02-04T00:48:22;14.83;57.32
73780;SHT30;62093;37.614;15.072;2024-02-04T00:50:48;14.86;57.61
73780;SHT30;62093;37.614;15.072;2024-02-04T00:53:15;14.78;57.53
73780;SHT30;62093;37.614;15.072;2024-02-04T00:55:41;14.83;57.57
73780;SHT30;62093;37.614;15.072;2024-02-04T00:58:07;14.82;57.08
73780;SHT30;62093;37.614;15.072;2024-02-04T01:00:33;14.76;57.62
73780;SHT30;62093;37.614;15.072;2024-02-04T01:02:59;14.81;57.56
73780;SHT30;62093;37.614;15.072;2024-02-04T01:05:25;14.81;57.37
73780;SHT30;62093;37.614;15.072;2024-02-04T01:07:50;14.76;57.40
73780;SHT30;62093;37.614;15.072;2024-02-04T01:10:16;14.81;57.94
73780;SHT30;62093;37.614;15.072;2024-02-04T01:12:42;14.76;57.65
73780;SHT30;62093;37.614;15.072;2024-02-04T01:15:08;14.75;57.41
73780;SHT30;62093;37.614;15.072;2024-02-04T01:17:34;14.79;57.72
73780;SHT30;62093;37.614;15.072;2024-02-04T01:20:00;14.75;57.80
73780;SHT30;62093;37.614;15.072;2024-02-04T01:22:26;14.75;57.63
73780;SHT30;62093;37.614;15.072;2024-02-04T01:24:53;14.78;57.60
73780;SHT30;62093;37.614;15.072;2024-02-04T01:27:19;14.73;57.57
73780;SHT30;62093;37.614;15.072;2024-02-04T01:29:45;14.75;57.51
73780;SHT30;62093;37.614;15.072;2024-02-04T01:32:11;14.75;57.79
73780;SHT30;62093;37.614;15.072;2024-02-04T01:34:37;14.76;57.50
73780;SHT30;62093;37.614;15.072;2024-02-04T01:37:03;14.75;57.74
73780;SHT30;62093;37.614;15.072;2024-02-04T01:39:29;14.73;56.89
73780;SHT30;62093;37.614;15.072;2024-02-04T01:41:55;14.71;57.61
73780;SHT30;62093;37.614;15.072;2024-02-04T01:44:21;14.71;57.49
73780;SHT30;62093;37.614;15.072;2024-02-04T01:46:48;14.76;58.02
73780;SHT30;62093;37.614;15.072;2024-02-04T01:49:14;14.75;57.69
73780;SHT30;62093;37.614;15.072;2024-02-04T01:51:41;14.72;57.41
73780;SHT30;62093;37.614;15.072;2024-02-04T01:54:08;14.73;57.47
73780;SHT30;62093;37.614;15.072;2024-02-04T01:56:35;14.75;57.70
73780;SHT30;62093;37.614;15.072;2024-02-04T01:59:02;14.73;57.58
73780;SHT30;62093;37.614;15.072;2024-02-04T02:01:28;14.71;57.53
73780;SHT30;62093;37.614;15.072;2024-02-04T02:03:54;14.69;57.25
73780;SHT30;62093;37.614;15.072;2024-02-04T02:06:21;14.75;57.54
73780;SHT30;62093;37.614;15.072;2024-02-04T02:08:48;14.76;57.60
73780;SHT30;62093;37.614;15.072;2024-02-04T02:11:27;14.71;57.49
73780;SHT30;62093;37.614;15.072;2024-02-04T02:14:01;14.75;57.39
73780;SHT30;62093;37.614;15.072;2024-02-04T02:16:30;14.75;57.19
73780;SHT30;62093;37.614;15.072;2024-02-04T02:22:25;14.69;57.19
73780;SHT30;62093;37.614;15.072;2024-02-04T02:24:52;14.76;57.58
73780;SHT30;62093;37.614;15.072;2024-02-04T02:27:19;14.75;57.46
73780;SHT30;62093;37.614;15.072;2024-02-04T02:29:45;14.72;57.73
73780;SHT30;62093;37.614;15.072;2024-02-04T02:32:11;14.69;57.11
73780;SHT30;62093;37.614;15.072;2024-02-04T02:34:37;14.73;57.42
73780;SHT30;62093;37.614;15.072;2024-02-04T02:40:10;14.71;57.17
73780;SHT30;62093;37.614;15.072;2024-02-04T02:42:38;14.73;57.67
73780;SHT30;62093;37.614;15.072;2024-02-04T02:45:07;14.75;57.33
73780;SHT30;62093;37.614;15.072;2024-02-04T02:47:34;14.76;57.70
73780;SHT30;62093;37.614;15.072;2024-02-04T02:50:01;14.78;57.35
73780;SHT30;62093;37.614;15.072;2024-02-04T02:52:27;14.72;57.45
73780;SHT30;62093;37.614;15.072;2024-02-04T02:54:53;14.72;57.37
73780;SHT30;62093;37.614;15.072;2024-02-04T02:57:18;14.72;56.95
73780;SHT30;62093;37.614;15.072;2024-02-04T02:59:44;14.72;57.46
73780;SHT30;62093;37.614;15.072;2024-02-04T03:02:10;14.69;57.58
73780;SHT30;62093;37.614;15.072;2024-02-04T03:04:37;14.71;57.40
73780;SHT30;62093;37.614;15.072;2024-02-04T03:07:03;14.72;57.50
73780;SHT30;62093;37.614;15.072;2024-02-04T03:09:29;14.69;57.50
73780;SHT30;62093;37.614;15.072;2024-02-04T03:11:55;14.68;57.41
73780;SHT30;62093;37.614;15.072;2024-02-04T03:14:22;14.65;57.31
73780;SHT30;62093;37.614;15.072;2024-02-04T03:16:48;14.67;57.70
73780;SHT30;62093;37.614;15.072;2024-02-04T03:19:14;14.68;57.40
73780;SHT30;62093;37.614;15.072;2024-02-04T03:21:42;14.71;57.49
73780;SHT30;62093;37.614;15.072;2024-02-04T03:24:08;14.65;57.29
73780;SHT30;62093;37.614;15.072;2024-02-04T03:26:34;14.65;57.79
73780;SHT30;62093;37.614;15.072;2024-02-04T03:28:59;14.68;57.35
73780;SHT30;62093;37.614;15.072;2024-02-04T03:31:25;14.68;57.42
73780;SHT30;62093;37.614;15.072;2024-02-04T03:33:52;14.69;57.53
73780;SHT30;62093;37.614;15.072;2024-02-04T03:36:24;14.69;57.73
73780;SHT30;62093;37.614;15.072;2024-02-04T03:38:51;14.67;57.29
73780;SHT30;62093;37.614;15.072;2024-02-04T03:41:17;14.69;57.27
73780;SHT30;62093;37.614;15.072;2024-02-04T03:43:44;14.69;57.33
73780;SHT30;62093;37.614;15.072;2024-02-04T03:46:16;14.68;57.35
73780;SHT30;62093;37.614;15.072;2024-02-04T03:48:43;14.69;57.55
73780;SHT30;62093;37.614;15.072;2024-02-04T03:51:15;14.72;57.66
73780;SHT30;62093;37.614;15.072;2024-02-04T03:53:41;14.67;57.09
73780;SHT30;62093;37.614;15.072;2024-02-04T03:56:07;14.67;57.60
73780;SHT30;62093;37.614;15.072;2024-02-04T03:58:33;14.65;57.26
73780;SHT30;62093;37.614;15.072;2024-02-04T04:00:59;14.65;57.67
73780;SHT30;62093;37.614;15.072;2024-02-04T04:03:25;14.68;57.59
73780;SHT30;62093;37.614;15.072;2024-02-04T04:05:53;14.68;57.62
73780;SHT30;62093;37.614;15.072;2024-02-04T04:08:19;14.62;57.81
73780;SHT30;62093;37.614;15.072;2024-02-04T04:10:45;14.62;57.38
73780;SHT30;62093;37.614;15.072;2024-02-04T04:13:12;14.67;57.58
73780;SHT30;62093;37.614;15.072;2024-02-04T04:15:38;14.65;57.46
73780;SHT30;62093;37.614;15.072;2024-02-04T04:18:04;14.67;57.49
73780;SHT30;62093;37.614;15.072;2024-02-04T04:20:30;14.64;57.25
73780;SHT30;62093;37.614;15.072;2024-02-04T04:22:56;14.59;57.68
73780;SHT30;62093;37.614;15.072;2024-02-04T04:25:22;14.61;57.47
73780;SHT30;62093;37.614;15.072;2024-02-04T04:27:48;14.67;57.31
73780;SHT30;62093;37.614;15.072;2024-02-04T04:30:14;14.67;57.63
73780;SHT30;62093;37.614;15.072;2024-02-04T04:32:40;14.59;57.54
73780;SHT30;62093;37.614;15.072;2024-02-04T04:35:06;14.65;57.41
73780;SHT30;62093;37.614;15.072;2024-02-04T04:37:32;14.62;57.08
73780;SHT30;62093;37.614;15.072;2024-02-04T04:39:58;14.62;57.74
73780;SHT30;62093;37.614;15.072;2024-02-04T04:42:24;14.59;57.60
73780;SHT30;62093;37.614;15.072;2024-02-04T04:44:50;14.59;57.59
73780;SHT30;62093;37.614;15.072;2024-02-04T04:47:16;14.59;57.44
73780;SHT30;62093;37.614;15.072;2024-02-04T04:49:42;14.61;57.38
73780;SHT30;62093;37.614;15.072;2024-02-04T04:52:08;14.57;57.13
73780;SHT30;62093;37.614;15.072;2024-02-04T04:54:33;14.59;57.69
73780;SHT30;62093;37.614;15.072;2024-02-04T04:56:59;14.55;57.74
73780;SHT30;62093;37.614;15.072;2024-02-04T04:59:25;14.58;57.60
73780;SHT30;62093;37.614;15.072;2024-02-04T05:01:51;14.54;57.60
73780;SHT30;62093;37.614;15.072;2024-02-04T05:04:17;14.54;57.29
73780;SHT30;62093;37.614;15.072;2024-02-04T05:06:46;14.52;57.55
73780;SHT30;62093;37.614;15.072;2024-02-04T05:09:12;14.51;57.51
73780;SHT30;62093;37.614;15.072;2024-02-04T05:11:38;14.51;57.76
73780;SHT30;62093;37.614;15.072;2024-02-04T05:14:04;14.52;57.95
73780;SHT30;62093;37.614;15.072;2024-02-04T05:16:30;14.54;57.19
73780;SHT30;62093;37.614;15.072;2024-02-04T05:18:56;14.52;57.64
73780;SHT30;62093;37.614;15.072;2024-02-04T05:21:22;14.51;57.83
73780;SHT30;62093;37.614;15.072;2024-02-04T05:23:48;14.49;57.91
73780;SHT30;62093;37.614;15.072;2024-02-04T05:26:17;14.51;57.68
73780;SHT30;62093;37.614;15.072;2024-02-04T05:28:43;14.54;57.65
73780;SHT30;62093;37.614;15.072;2024-02-04T05:31:09;14.48;57.46
73780;SHT30;62093;37.614;15.072;2024-02-04T05:33:35;14.48;57.71
73780;SHT30;62093;37.614;15.072;2024-02-04T05:36:01;14.51;57.63
73780;SHT30;62093;37.614;15.072;2024-02-04T05:38:26;14.51;57.76
73780;SHT30;62093;37.614;15.072;2024-02-04T05:40:52;14.51;57.58
73780;SHT30;62093;37.614;15.072;2024-02-04T05:43:18;14.48;57.71
73780;SHT30;62093;37.614;15.072;2024-02-04T05:45:44;14.44;57.68
73780;SHT30;62093;37.614;15.072;2024-02-04T05:48:10;14.51;58.01
73780;SHT30;62093;37.614;15.072;2024-02-04T05:50:36;14.52;57.64
73780;SHT30;62093;37.614;15.072;2024-02-04T05:53:02;14.46;57.59
73780;SHT30;62093;37.614;15.072;2024-02-04T05:55:29;14.45;57.78
73780;SHT30;62093;37.614;15.072;2024-02-04T05:57:55;14.48;57.85
73780;SHT30;62093;37.614;15.072;2024-02-04T06:00:21;14.48;57.61
73780;SHT30;62093;37.614;15.072;2024-02-04T06:02:47;14.46;57.71
73780;SHT30;62093;37.614;15.072;2024-02-04T06:05:13;14.48;57.95
73780;SHT30;62093;37.614;15.072;2024-02-04T06:07:39;14.45;57.37
73780;SHT30;62093;37.614;15.072;2024-02-04T06:10:11;14.42;57.73
73780;SHT30;62093;37.614;15.072;2024-02-04T06:12:37;14.48;57.63
73780;SHT30;62093;37.614;15.072;2024-02-04T06:15:12;14.45;57.98
73780;SHT30;62093;37.614;15.072;2024-02-04T06:17:38;14.46;57.77
73780;SHT30;62093;37.614;15.072;2024-02-04T06:20:04;14.48;57.33
73780;SHT30;62093;37.614;15.072;2024-02-04T06:22:31;14.42;57.84
73780;SHT30;62093;37.614;15.072;2024-02-04T06:24:57;14.41;57.06
73780;SHT30;62093;37.614;15.072;2024-02-04T06:27:23;14.46;57.57
73780;SHT30;62093;37.614;15.072;2024-02-04T06:29:49;14.52;57.74
73780;SHT30;62093;37.614;15.072;2024-02-04T06:32:15;14.46;57.77
73780;SHT30;62093;37.614;15.072;2024-02-04T06:34:41;14.45;57.49
73780;SHT30;62093;37.614;15.072;2024-02-04T06:37:07;14.45;57.62
73780;SHT30;62093;37.614;15.072;2024-02-04T06:39:33;14.40;57.54
73780;SHT30;62093;37.614;15.072;2024-02-04T06:41:59;14.46;58.16
73780;SHT30;62093;37.614;15.072;2024-02-04T06:44:25;14.46;57.57
73780;SHT30;62093;37.614;15.072;2024-02-04T06:46:51;14.44;58.00
73780;SHT30;62093;37.614;15.072;2024-02-04T06:49:17;14.48;57.67
73780;SHT30;62093;37.614;15.072;2024-02-04T06:51:44;14.49;57.70
73780;SHT30;62093;37.614;15.072;2024-02-04T06:54:11;14.52;57.97
73780;SHT30;62093;37.614;15.072;2024-02-04T06:56:36;14.54;58.05
73780;SHT30;62093;37.614;15.072;2024-02-04T06:59:02;14.51;57.68
73780;SHT30;62093;37.614;15.072;2024-02-04T07:01:28;14.51;57.97
73780;SHT30;62093;37.614;15.072;2024-02-04T07:03:54;14.51;57.83
73780;SHT30;62093;37.614;15.072;2024-02-04T07:06:20;14.52;57.95
73780;SHT30;62093;37.614;15.072;2024-02-04T07:08:46;14.55;57.90
73780;SHT30;62093;37.614;15.072;2024-02-04T07:11:12;14.55;57.72
73780;SHT30;62093;37.614;15.072;2024-02-04T07:13:37;14.54;58.05
73780;SHT30;62093;37.614;15.072;2024-02-04T07:16:03;14.55;57.41
73780;SHT30;62093;37.614;15.072;2024-02-04T07:18:30;14.59;57.56
73780;SHT30;62093;37.614;15.072;2024-02-04T07:20:56;14.62;57.70
73780;SHT30;62093;37.614;15.072;2024-02-04T07:23:22;14.65;57.81
73780;SHT30;62093;37.614;15.072;2024-02-04T07:25:48;14.67;57.81
73780;SHT30;62093;37.614;15.072;2024-02-04T07:28:14;14.69;57.68
73780;SHT30;62093;37.614;15.072;2024-02-04T07:30:40;14.68;57.55
73780;SHT30;62093;37.614;15.072;2024-02-04T07:33:06;14.71;57.77
73780;SHT30;62093;37.614;15.072;2024-02-04T07:35:32;14.69;57.81
73780;SHT30;62093;37.614;15.072;2024-02-04T07:37:58;14.69;57.81
73780;SHT30;62093;37.614;15.072;2024-02-04T07:40:24;14.71;57.78
73780;SHT30;62093;37.614;15.072;2024-02-04T07:42:50;14.75;57.69
73780;SHT30;62093;37.614;15.072;2024-02-04T07:45:15;14.73;57.85
73780;SHT30;62093;37.614;15.072;2024-02-04T07:47:41;14.79;57.71
73780;SHT30;62093;37.614;15.072;2024-02-04T07:50:08;14.81;57.63
73780;SHT30;62093;37.614;15.072;2024-02-04T07:52:34;14.83;57.61
73780;SHT30;62093;37.614;15.072;2024-02-04T07:55:00;14.82;57.59
73780;SHT30;62093;37.614;15.072;2024-02-04T07:57:26;14.86;57.64
73780;SHT30;62093;37.614;15.072;2024-02-04T07:59:52;14.89;57.43
73780;SHT30;62093;37.614;15.072;2024-02-04T08:02:18;14.91;57.49
73780;SHT30;62093;37.614;15.072;2024-02-04T08:04:44;14.91;57.48
73780;SHT30;62093;37.614;15.072;2024-02-04T08:07:10;14.96;57.44
73780;SHT30;62093;37.614;15.072;2024-02-04T08:09:35;14.93;57.38
73780;SHT30;62093;37.614;15.072;2024-02-04T08:12:01;14.92;57.35
73780;SHT30;62093;37.614;15.072;2024-02-04T08:14:27;14.95;57.42
73780;SHT30;62093;37.614;15.072;2024-02-04T08:16:53;14.95;57.35
73780;SHT30;62093;37.614;15.072;2024-02-04T08:19:19;14.95;57.37
73780;SHT30;62093;37.614;15.072;2024-02-04T08:21:44;15.00;57.36
73780;SHT30;62093;37.614;15.072;2024-02-04T08:24:10;15.02;57.14
73780;SHT30;62093;37.614;15.072;2024-02-04T08:26:36;15.03;57.21
73780;SHT30;62093;37.614;15.072;2024-02-04T08:29:02;15.00;57.18
73780;SHT30;62093;37.614;15.072;2024-02-04T08:31:31;15.03;57.20
73780;SHT30;62093;37.614;15.072;2024-02-04T08:33:58;15.07;57.36
73780;SHT30;62093;37.614;15.072;2024-02-04T08:36:24;15.06;57.27
73780;SHT30;62093;37.614;15.072;2024-02-04T08:38:49;15.09;57.18
73780;SHT30;62093;37.614;15.072;2024-02-04T08:41:15;15.04;56.87
73780;SHT30;62093;37.614;15.072;2024-02-04T08:43:41;15.03;57.13
73780;SHT30;62093;37.614;15.072;2024-02-04T08:46:07;15.09;57.13
73780;SHT30;62093;37.614;15.072;2024-02-04T08:48:33;15.09;57.07
73780;SHT30;62093;37.614;15.072;2024-02-04T08:50:59;15.09;57.12
73780;SHT30;62093;37.614;15.072;2024-02-04T08:53:25;15.06;57.15
73780;SHT30;62093;37.614;15.072;2024-02-04T08:55:51;15.07;56.99
73780;SHT30;62093;37.614;15.072;2024-02-04T08:58:17;15.10;57.17
73780;SHT30;62093;37.614;15.072;2024-02-04T09:00:43;15.13;57.00
73780;SHT30;62093;37.614;15.072;2024-02-04T09:03:09;15.16;56.94
73780;SHT30;62093;37.614;15.072;2024-02-04T09:05:35;15.14;56.90
73780;SHT30;62093;37.614;15.072;2024-02-04T09:08:01;15.16;56.75
73780;SHT30;62093;37.614;15.072;2024-02-04T09:10:27;15.13;56.96
73780;SHT30;62093;37.614;15.072;2024-02-04T09:12:53;15.16;56.95
73780;SHT30;62093;37.614;15.072;2024-02-04T09:15:19;15.14;57.05
73780;SHT30;62093;37.614;15.072;2024-02-04T09:17:45;15.16;56.78
73780;SHT30;62093;37.614;15.072;2024-02-04T09:20:11;15.16;56.68
73780;SHT30;62093;37.614;15.072;2024-02-04T09:22:37;15.14;56.78
73780;SHT30;62093;37.614;15.072;2024-02-04T09:25:05;15.19;56.86
73780;SHT30;62093;37.614;15.072;2024-02-04T09:27:31;15.19;56.62
73780;SHT30;62093;37.614;15.072;2024-02-04T09:29:57;15.20;56.87
73780;SHT30;62093;37.614;15.072;2024-02-04T09:32:24;15.19;56.69
73780;SHT30;62093;37.614;15.072;2024-02-04T09:34:50;15.20;56.70
73780;SHT30;62093;37.614;15.072;2024-02-04T09:37:16;15.19;56.59
73780;SHT30;62093;37.614;15.072;2024-02-04T09:39:42;15.20;56.84
73780;SHT30;62093;37.614;15.072;2024-02-04T09:42:07;15.26;56.59
73780;SHT30;62093;37.614;15.072;2024-02-04T09:44:34;15.26;56.71
73780;SHT30;62093;37.614;15.072;2024-02-04T09:47:02;15.26;56.50
73780;SHT30;62093;37.614;15.072;2024-02-04T09:49:28;15.26;56.43
73780;SHT30;62093;37.614;15.072;2024-02-04T09:51:59;15.24;56.65
73780;SHT30;62093;37.614;15.072;2024-02-04T09:54:27;15.27;56.37
73780;SHT30;62093;37.614;15.072;2024-02-04T09:56:53;15.31;56.52
73780;SHT30;62093;37.614;15.072;2024-02-04T09:59:19;15.31;56.46
73780;SHT30;62093;37.614;15.072;2024-02-04T10:01:46;15.36;56.35
73780;SHT30;62093;37.614;15.072;2024-02-04T10:04:12;15.31;56.57
73780;SHT30;62093;37.614;15.072;2024-02-04T10:06:38;15.33;56.50
73780;SHT30;62093;37.614;15.072;2024-02-04T10:09:04;15.34;56.32
73780;SHT30;62093;37.614;15.072;2024-02-04T10:11:30;15.33;56.36
73780;SHT30;62093;37.614;15.072;2024-02-04T10:13:56;15.40;56.45
73780;SHT30;62093;37.614;15.072;2024-02-04T10:16:22;15.39;56.38
73780;SHT30;62093;37.614;15.072;2024-02-04T10:18:48;15.37;56.31
73780;SHT30;62093;37.614;15.072;2024-02-04T10:21:20;15.39;56.35
73780;SHT30;62093;37.614;15.072;2024-02-04T10:23:47;15.40;56.52
73780;SHT30;62093;37.614;15.072;2024-02-04T10:26:13;15.39;56.21
73780;SHT30;62093;37.614;15.072;2024-02-04T10:28:39;15.37;56.20
73780;SHT30;62093;37.614;15.072;2024-02-04T10:31:08;15.41;56.35
73780;SHT30;62093;37.614;15.072;2024-02-04T10:33:37;15.41;56.34
73780;SHT30;62093;37.614;15.072;2024-02-04T10:36:04;15.41;56.30
73780;SHT30;62093;37.614;15.072;2024-02-04T10:38:31;15.44;56.34
73780;SHT30;62093;37.614;15.072;2024-02-04T10:40:59;15.44;56.20
73780;SHT30;62093;37.614;15.072;2024-02-04T10:43:34;15.43;56.29
73780;SHT30;62093;37.614;15.072;2024-02-04T10:46:13;15.47;56.13
73780;SHT30;62093;37.614;15.072;2024-02-04T10:48:41;15.49;56.18
73780;SHT30;62093;37.614;15.072;2024-02-04T10:51:13;15.49;56.31
73780;SHT30;62093;37.614;15.072;2024-02-04T10:53:41;15.53;56.09
73780;SHT30;62093;37.614;15.072;2024-02-04T10:56:14;15.51;56.02
73780;SHT30;62093;37.614;15.072;2024-02-04T10:58:44;15.54;56.13
73780;SHT30;62093;37.614;15.072;2024-02-04T11:01:13;15.55;56.16
73780;SHT30;62093;37.614;15.072;2024-02-04T11:03:41;15.54;56.23
73780;SHT30;62093;37.614;15.072;2024-02-04T11:06:10;15.55;56.14
73780;SHT30;62093;37.614;15.072;2024-02-04T11:08:38;15.54;56.03
73780;SHT30;62093;37.614;15.072;2024-02-04T11:11:04;15.55;56.20
73780;SHT30;62093;37.614;15.072;2024-02-04T11:13:31;15.54;56.19
73780;SHT30;62093;37.614;15.072;2024-02-04T11:15:58;15.57;56.14
73780;SHT30;62093;37.614;15.072;2024-02-04T11:26:29;15.63;55.95
73780;SHT30;62093;37.614;15.072;2024-02-04T11:28:56;15.65;55.96
73780;SHT30;62093;37.614;15.072;2024-02-04T11:31:22;15.63;55.83
73780;SHT30;62093;37.614;15.072;2024-02-04T11:33:50;15.63;55.94
73780;SHT30;62093;37.614;15.072;2024-02-04T11:36:16;15.68;55.78
73780;SHT30;62093;37.614;15.072;2024-02-04T11:38:48;15.65;55.80
73780;SHT30;62093;37.614;15.072;2024-02-04T11:41:24;15.68;55.73
73780;SHT30;62093;37.614;15.072;2024-02-04T11:43:55;15.67;55.83
73780;SHT30;62093;37.614;15.072;2024-02-04T11:46:21;15.68;55.83
73780;SHT30;62093;37.614;15.072;2024-02-04T11:48:52;15.65;55.86
73780;SHT30;62093;37.614;15.072;2024-02-04T11:51:24;15.70;55.80
73780;SHT30;62093;37.614;15.072;2024-02-04T11:53:51;15.67;55.90
73780;SHT30;62093;37.614;15.072;2024-02-04T11:56:18;15.71;55.76
73780;SHT30;62093;37.614;15.072;2024-02-04T11:58:45;15.74;55.74
73780;SHT30;62093;37.614;15.072;2024-02-04T12:01:11;15.71;55.79
73780;SHT30;62093;37.614;15.072;2024-02-04T12:03:37;15.74;55.73
73780;SHT30;62093;37.614;15.072;2024-02-04T12:06:03;15.74;55.67
73780;SHT30;62093;37.614;15.072;2024-02-04T12:08:32;15.75;55.59
73780;SHT30;62093;37.614;15.072;2024-02-04T12:10:59;15.74;55.74
73780;SHT30;62093;37.614;15.072;2024-02-04T12:13:27;15.74;55.72
73780;SHT30;62093;37.614;15.072;2024-02-04T12:15:53;15.77;55.61
73780;SHT30;62093;37.614;15.072;2024-02-04T12:18:19;15.77;55.59
73780;SHT30;62093;37.614;15.072;2024-02-04T12:20:47;15.78;55.57
73780;SHT30;62093;37.614;15.072;2024-02-04T12:23:15;15.78;55.59
73780;SHT30;62093;37.614;15.072;2024-02-04T12:25:41;15.77;55.55
73780;SHT30;62093;37.614;15.072;2024-02-04T12:28:08;15.75;55.14
73780;SHT30;62093;37.614;15.072;2024-02-04T12:30:34;15.78;55.30
73780;SHT30;62093;37.614;15.072;2024-02-04T12:33:05;15.80;55.41
73780;SHT30;62093;37.614;15.072;2024-02-04T12:35:34;15.78;55.57
73780;SHT30;62093;37.614;15.072;2024-02-04T12:38:00;15.81;54.96
73780;SHT30;62093;37.614;15.072;2024-02-04T12:40:29;15.78;55.41
73780;SHT30;62093;37.614;15.072;2024-02-04T12:42:59;15.75;55.67
73780;SHT30;62093;37.614;15.072;2024-02-04T12:45:27;15.78;55.60
73780;SHT30;62093;37.614;15.072;2024-02-04T12:47:55;15.80;55.58
73780;SHT30;62093;37.614;15.072;2024-02-04T12:50:22;15.77;55.37
73780;SHT30;62093;37.614;15.072;2024-02-04T12:52:49;15.77;55.29
73780;SHT30;62093;37.614;15.072;2024-02-04T12:55:26;15.77;55.47
73780;SHT30;62093;37.614;15.072;2024-02-04T12:58:10;15.75;55.58
73780;SHT30;62093;37.614;15.072;2024-02-04T13:00:38;15.80;54.99
73780;SHT30;62093;37.614;15.072;2024-02-04T13:03:05;15.80;54.83
73780;SHT30;62093;37.614;15.072;2024-02-04T13:05:31;15.78;54.46
73780;SHT30;62093;37.614;15.072;2024-02-04T13:07:59;15.78;54.76
73780;SHT30;62093;37.614;15.072;2024-02-04T13:10:29;15.78;54.59
73780;SHT30;62093;37.614;15.072;2024-02-04T13:13:08;15.77;55.46
73780;SHT30;62093;37.614;15.072;2024-02-04T13:15:39;15.77;54.82
73780;SHT30;62093;37.614;15.072;2024-02-04T13:18:05;15.75;54.97
73780;SHT30;62093;37.614;15.072;2024-02-04T13:20:31;15.78;54.75
73780;SHT30;62093;37.614;15.072;2024-02-04T13:22:58;15.77;55.31
73780;SHT30;62093;37.614;15.072;2024-02-04T13:25:25;15.78;54.71
73780;SHT30;62093;37.614;15.072;2024-02-04T13:27:52;15.77;54.96
73780;SHT30;62093;37.614;15.072;2024-02-04T13:30:18;15.78;54.86
73780;SHT30;62093;37.614;15.072;2024-02-04T13:32:45;15.77;54.80
73780;SHT30;62093;37.614;15.072;2024-02-04T13:35:11;15.77;55.19
73780;SHT30;62093;37.614;15.072;2024-02-04T13:37:42;15.78;55.22
73780;SHT30;62093;37.614;15.072;2024-02-04T13:40:15;15.77;55.41
73780;SHT30;62093;37.614;15.072;2024-02-04T13:42:41;15.77;55.29
73780;SHT30;62093;37.614;15.072;2024-02-04T13:45:08;15.80;55.31
73780;SHT30;62093;37.614;15.072;2024-02-04T13:47:34;15.80;55.43
73780;SHT30;62093;37.614;15.072;2024-02-04T13:50:01;15.78;55.39
73780;SHT30;62093;37.614;15.072;2024-02-04T13:52:27;15.75;55.48
73780;SHT30;62093;37.614;15.072;2024-02-04T13:54:53;15.80;55.50
73780;SHT30;62093;37.614;15.072;2024-02-04T13:57:19;15.80;55.44
73780;SHT30;62093;37.614;15.072;2024-02-04T13:59:45;15.80;55.36
73780;SHT30;62093;37.614;15.072;2024-02-04T14:02:10;15.80;54.72
73780;SHT30;62093;37.614;15.072;2024-02-04T14:04:36;15.82;54.65
73780;SHT30;62093;37.614;15.072;2024-02-04T14:07:02;15.84;54.38
73780;SHT30;62093;37.614;15.072;2024-02-04T14:09:28;15.87;54.21
73780;SHT30;62093;37.614;15.072;2024-02-04T14:11:54;15.85;54.75
73780;SHT30;62093;37.614;15.072;2024-02-04T14:14:23;15.84;54.86
73780;SHT30;62093;37.614;15.072;2024-02-04T14:16:49;15.82;54.68
73780;SHT30;62093;37.614;15.072;2024-02-04T14:19:15;15.81;55.01
73780;SHT30;62093;37.614;15.072;2024-02-04T14:21:41;15.81;54.87
73780;SHT30;62093;37.614;15.072;2024-02-04T14:24:08;15.82;54.59
73780;SHT30;62093;37.614;15.072;2024-02-04T14:26:33;15.82;54.87
73780;SHT30;62093;37.614;15.072;2024-02-04T14:28:59;15.80;54.67
73780;SHT30;62093;37.614;15.072;2024-02-04T14:31:25;15.82;54.91
73780;SHT30;62093;37.614;15.072;2024-02-04T14:33:51;15.82;55.12
73780;SHT30;62093;37.614;15.072;2024-02-04T14:36:17;15.82;55.24
73780;SHT30;62093;37.614;15.072;2024-02-04T14:38:43;15.82;55.17
73780;SHT30;62093;37.614;15.072;2024-02-04T14:41:09;15.81;55.13
73780;SHT30;62093;37.614;15.072;2024-02-04T14:43:37;15.82;54.96
73780;SHT30;62093;37.614;15.072;2024-02-04T14:46:04;15.81;54.59
73780;SHT30;62093;37.614;15.072;2024-02-04T14:48:30;15.84;55.25
73780;SHT30;62093;37.614;15.072;2024-02-04T14:50:56;15.85;55.26
73780;SHT30;62093;37.614;15.072;2024-02-04T14:53:25;15.85;55.27
73780;SHT30;62093;37.614;15.072;2024-02-04T14:55:50;15.84;55.40
73780;SHT30;62093;37.614;15.072;2024-02-04T14:58:16;15.82;55.31
73780;SHT30;62093;37.614;15.072;2024-02-04T15:00:42;15.84;55.15
73780;SHT30;62093;37.614;15.072;2024-02-04T15:03:09;15.84;55.31
73780;SHT30;62093;37.614;15.072;2024-02-04T15:05:35;15.84;55.34
73780;SHT30;62093;37.614;15.072;2024-02-04T15:08:01;15.84;55.23
73780;SHT30;62093;37.614;15.072;2024-02-04T15:10:26;15.87;55.13
73780;SHT30;62093;37.614;15.072;2024-02-04T15:12:53;15.88;55.11
73780;SHT30;62093;37.614;15.072;2024-02-04T15:15:19;15.90;55.19
73780;SHT30;62093;37.614;15.072;2024-02-04T15:17:45;15.87;55.09
73780;SHT30;62093;37.614;15.072;2024-02-04T15:20:12;15.85;55.29
73780;SHT30;62093;37.614;15.072;2024-02-04T15:22:40;15.87;55.25
73780;SHT30;62093;37.614;15.072;2024-02-04T15:25:06;15.85;55.33
73780;SHT30;62093;37.614;15.072;2024-02-04T15:27:33;15.87;55.33